createdAt,value
2023-03-05T13:38:14.459Z,16.738892
2023-03-05T13:39:14.332Z,16.950378
2023-03-05T13:40:14.240Z,18.088379
2023-03-05T13:41:14.400Z,18.309937
2023-03-05T13:42:14.219Z,17.876892
2023-03-05T13:43:14.221Z,17.816467
2023-03-05T13:44:14.173Z,17.554626
2023-03-05T13:45:14.242Z,17.000732
2023-03-05T13:46:14.509Z,16.748962
2023-03-05T13:47:14.339Z,16.829529
2023-03-05T13:48:14.228Z,17.413635
2023-03-05T13:49:15.190Z,18.088379
2023-03-05T13:50:14.265Z,18.944397
2023-03-05T13:51:14.239Z,19.478149
2023-03-05T13:52:14.090Z,20.001831
2023-03-05T13:53:14.219Z,20.767212
2023-03-05T13:54:14.114Z,20.797424
2023-03-05T13:55:14.161Z,21.482239
2023-03-05T13:56:14.177Z,21.713867
2023-03-05T13:57:15.979Z,22.086487
2023-03-05T13:58:14.099Z,22.620239
2023-03-05T13:59:14.094Z,21.723938
2023-03-05T14:00:14.110Z,21.421814
2023-03-05T14:01:14.441Z,20.102539
2023-03-05T14:02:14.231Z,18.672485
2023-03-05T14:03:15.078Z,18.128662
2023-03-05T14:04:15.050Z,17.756042
2023-03-05T14:05:14.150Z,17.403564
2023-03-05T14:06:14.164Z,17.151794
2023-03-05T14:07:14.115Z,16.950378
2023-03-05T14:08:14.223Z,17.061157
2023-03-05T14:09:13.934Z,16.920166
2023-03-05T14:10:13.977Z,17.071228
2023-03-05T14:11:13.969Z,17.333069
2023-03-05T14:12:14.040Z,17.383423
2023-03-05T14:13:14.163Z,17.262573
2023-03-05T14:14:13.988Z,17.111511
2023-03-05T14:15:14.038Z,16.879883
2023-03-05T14:16:14.277Z,16.738892
2023-03-05T14:17:14.102Z,17.030945
2023-03-05T14:18:14.164Z,16.829529
2023-03-05T14:19:14.059Z,16.829529
2023-03-05T14:20:14.206Z,16.809387
